createdAt,value
2022-12-29T00:00:48.100Z,11.77
2022-12-29T00:03:08.289Z,16.50
2022-12-29T00:05:29.406Z,12.90
2022-12-29T00:07:49.689Z,11.75
2022-12-29T00:10:09.784Z,10.85
2022-12-29T00:12:49.941Z,10.60
2022-12-29T00:15:28.400Z,11.10
2022-12-29T00:17:48.055Z,10.23
2022-12-29T00:20:26.696Z,11.82
2022-12-29T00:23:05.518Z,11.30
2022-12-29T00:25:44.071Z,12.77
2022-12-29T00:28:23.645Z,12.25
2022-12-29T00:31:02.658Z,12.50
2022-12-29T00:33:47.209Z,15.85
2022-12-29T00:36:13.980Z,15.48
2022-12-29T00:38:55.995Z,17.38
2022-12-29T00:41:34.715Z,16.25
2022-12-29T00:44:06.847Z,16.92
2022-12-29T00:46:27.483Z,16.83
2022-12-29T00:49:06.279Z,19.15
2022-12-29T00:51:26.219Z,16.40
2022-12-29T00:53:46.304Z,18.67
2022-12-29T00:56:06.130Z,17.50
2022-12-29T00:58:29.058Z,18.02
2022-12-29T01:00:49.172Z,16.65
2022-12-29T01:03:09.281Z,16.48
2022-12-29T01:05:29.561Z,15.93
2022-12-29T01:07:49.630Z,16.63
2022-12-29T01:10:12.195Z,17.85
2022-12-29T01:12:44.204Z,16.13
2022-12-29T01:15:04.861Z,17.77
2022-12-29T01:17:27.721Z,17.08
2022-12-29T01:19:47.812Z,17.33
2022-12-29T01:22:07.973Z,18.13
2022-12-29T01:24:28.217Z,18.65
2022-12-29T01:26:48.916Z,18.92
2022-12-29T01:29:08.614Z,19.70
2022-12-29T01:31:28.675Z,17.38
2022-12-29T01:33:48.644Z,18.17
2022-12-29T01:36:12.418Z,15.88
2022-12-29T01:38:33.662Z,16.73
2022-12-29T01:40:53.937Z,16.33
2022-12-29T01:43:15.387Z,15.07
2022-12-29T01:45:35.407Z,16.08
2022-12-29T01:47:59.876Z,14.90
2022-12-29T01:50:33.770Z,13.55
2022-12-29T01:53:05.787Z,15.27
2022-12-29T01:55:29.254Z,15.20
2022-12-29T02:00:13.020Z,13.40
2022-12-29T02:02:34.650Z,13.10
2022-12-29T02:05:04.276Z,11.88
2022-12-29T02:07:27.956Z,13.07
2022-12-29T02:09:50.290Z,11.70
2022-12-29T02:12:10.711Z,12.10
2022-12-29T02:14:31.732Z,13.38
2022-12-29T02:17:12.708Z,10.68
2022-12-29T02:20:14.268Z,10.77
2022-12-29T02:23:25.659Z,11.30
2022-12-29T02:26:22.173Z,10.55
2022-12-29T02:28:51.447Z,10.57
2022-12-29T02:31:30.036Z,10.43
2022-12-29T02:34:01.815Z,11.65
2022-12-29T02:36:29.831Z,12.43
2022-12-29T02:39:05.554Z,11.13
2022-12-29T02:41:44.042Z,13.40
2022-12-29T02:44:17.521Z,13.00
2022-12-29T02:47:16.781Z,12.68
2022-12-29T02:49:48.841Z,13.10
2022-12-29T02:52:18.289Z,13.35
2022-12-29T02:54:44.089Z,14.27
2022-12-29T02:57:05.865Z,13.90
2022-12-29T02:59:25.648Z,14.02
2022-12-29T03:02:17.380Z,12.80
2022-12-29T03:05:13.412Z,16.50
2022-12-29T03:08:11.787Z,14.85
2022-12-29T03:10:59.406Z,15.60
2022-12-29T03:14:11.198Z,16.65
2022-12-29T03:16:46.221Z,16.65
2022-12-29T03:19:46.141Z,16.08
2022-12-29T03:22:30.985Z,17.67
2022-12-29T03:24:58.675Z,18.85
2022-12-29T03:27:24.517Z,18.17
2022-12-29T03:29:53.555Z,17.55
2022-12-29T03:32:15.298Z,16.75
2022-12-29T03:34:37.092Z,17.50
2022-12-29T03:37:12.966Z,17.73
2022-12-29T03:39:33.292Z,18.52
2022-12-29T03:42:03.328Z,20.58
2022-12-29T03:44:39.588Z,19.25
2022-12-29T03:46:59.698Z,19.83
2022-12-29T03:49:19.471Z,19.33
2022-12-29T03:51:39.736Z,19.85
2022-12-29T03:54:00.014Z,18.60
2022-12-29T03:56:20.051Z,19.63
2022-12-29T03:58:39.834Z,20.15
2022-12-29T04:01:00.133Z,17.58
2022-12-29T04:03:20.269Z,18.13
2022-12-29T04:05:40.496Z,16.65
2022-12-29T04:08:00.596Z,14.95
2022-12-29T04:10:20.314Z,15.15
2022-12-29T04:12:42.011Z,14.27
2022-12-29T04:15:01.710Z,13.90
2022-12-29T04:17:21.283Z,14.02
2022-12-29T04:19:41.471Z,13.07
2022-12-29T04:22:02.191Z,12.52
2022-12-29T04:24:22.319Z,13.95
2022-12-29T04:26:42.698Z,14.38
2022-12-29T04:29:02.258Z,13.57
2022-12-29T04:31:22.398Z,13.50
2022-12-29T04:33:42.709Z,14.13
2022-12-29T04:36:03.552Z,12.40
2022-12-29T04:38:24.475Z,12.88
2022-12-29T04:40:45.060Z,12.02
2022-12-29T04:43:05.221Z,12.38
2022-12-29T04:45:25.271Z,12.20
2022-12-29T04:47:44.932Z,12.60
2022-12-29T04:50:05.324Z,12.23
2022-12-29T04:52:25.145Z,13.18
2022-12-29T04:54:45.189Z,12.77
2022-12-29T04:57:05.395Z,11.90
2022-12-29T04:59:25.528Z,11.77
2022-12-29T05:01:45.387Z,11.63
2022-12-29T05:04:05.185Z,11.20
2022-12-29T05:06:24.902Z,11.05
2022-12-29T05:08:45.268Z,10.38
2022-12-29T05:11:05.637Z,10.73
2022-12-29T05:13:25.139Z,11.27
2022-12-29T05:15:52.791Z,11.75
2022-12-29T05:18:12.513Z,11.27
2022-12-29T05:20:32.874Z,9.70
2022-12-29T05:22:52.687Z,11.93
2022-12-29T05:25:13.366Z,12.27
2022-12-29T05:27:33.517Z,10.98
2022-12-29T05:29:53.869Z,12.25
2022-12-29T05:32:13.742Z,12.82
2022-12-29T05:34:34.369Z,13.18
2022-12-29T05:36:54.682Z,12.00
2022-12-29T05:39:14.484Z,10.25
2022-12-29T05:41:34.978Z,12.60
2022-12-29T05:43:54.888Z,12.10
2022-12-29T05:46:14.784Z,10.48
2022-12-29T05:48:38.079Z,9.85
2022-12-29T05:53:18.449Z,9.93
2022-12-29T05:55:41.033Z,8.85
2022-12-29T05:58:04.984Z,8.32
2022-12-29T06:00:25.213Z,10.10
2022-12-29T06:02:45.478Z,8.95
2022-12-29T06:05:05.922Z,8.25
2022-12-29T06:07:25.843Z,9.38
2022-12-29T06:09:45.404Z,8.50
2022-12-29T06:12:06.058Z,8.27
2022-12-29T06:14:25.600Z,9.23
2022-12-29T06:16:47.957Z,7.85
2022-12-29T06:19:08.130Z,8.52
2022-12-29T06:21:28.251Z,7.97
2022-12-29T06:23:48.516Z,8.38
2022-12-29T06:26:08.654Z,9.10
2022-12-29T06:28:28.364Z,8.57
2022-12-29T06:30:49.042Z,7.97
2022-12-29T06:33:08.894Z,8.20
2022-12-29T06:35:28.890Z,7.82
2022-12-29T06:37:49.091Z,9.27
2022-12-29T06:40:09.848Z,8.23
2022-12-29T06:42:29.738Z,9.55
2022-12-29T06:44:50.203Z,8.48
2022-12-29T06:47:10.221Z,10.07
2022-12-29T06:49:30.204Z,10.73
2022-12-29T06:51:49.860Z,10.20
2022-12-29T06:54:09.673Z,10.25
2022-12-29T06:56:29.874Z,13.93
2022-12-29T06:58:49.845Z,11.50
2022-12-29T07:01:10.058Z,12.40
2022-12-29T07:03:30.187Z,12.23
2022-12-29T07:05:50.050Z,14.32
2022-12-29T07:08:09.767Z,13.32
2022-12-29T07:10:29.811Z,12.25
2022-12-29T07:12:49.857Z,12.23
2022-12-29T07:15:10.357Z,14.38
2022-12-29T07:17:30.189Z,13.73
2022-12-29T07:19:50.315Z,13.40
2022-12-29T07:22:10.316Z,14.05
2022-12-29T07:24:30.181Z,13.95
2022-12-29T07:26:49.745Z,13.88
2022-12-29T07:29:09.335Z,14.23
2022-12-29T07:31:30.839Z,13.30
2022-12-29T07:33:50.957Z,14.52
2022-12-29T07:36:12.437Z,13.63
2022-12-29T07:38:32.086Z,13.43
2022-12-29T07:40:51.911Z,12.63
2022-12-29T07:43:11.714Z,13.25
2022-12-29T07:45:31.932Z,14.05
2022-12-29T07:47:51.904Z,12.50
2022-12-29T07:50:11.953Z,11.68
2022-12-29T07:52:31.499Z,13.02
2022-12-29T07:54:51.272Z,12.40
2022-12-29T07:57:11.538Z,12.98
2022-12-29T07:59:31.438Z,11.35
2022-12-29T08:01:51.760Z,10.98
2022-12-29T08:04:11.890Z,10.15
2022-12-29T08:06:32.866Z,10.07
2022-12-29T08:08:53.235Z,10.05
2022-12-29T08:11:13.480Z,11.68
2022-12-29T08:13:33.201Z,9.30
2022-12-29T08:15:53.438Z,9.85
2022-12-29T08:18:13.910Z,9.70
2022-12-29T08:20:34.204Z,8.90
2022-12-29T08:22:54.777Z,8.85
2022-12-29T08:25:14.904Z,10.63
2022-12-29T08:27:34.839Z,9.70
2022-12-29T08:29:54.995Z,9.68
2022-12-29T08:32:14.849Z,9.85
2022-12-29T08:34:34.870Z,8.25
2022-12-29T08:36:55.171Z,8.52
2022-12-29T08:39:14.832Z,8.85
2022-12-29T08:41:34.918Z,7.22
2022-12-29T08:43:54.987Z,8.00
2022-12-29T08:46:15.329Z,7.88
2022-12-29T08:48:35.282Z,8.07
2022-12-29T08:50:55.342Z,8.35
2022-12-29T08:53:15.222Z,8.40
2022-12-29T08:55:35.629Z,9.05
2022-12-29T08:57:55.514Z,8.32
2022-12-29T09:00:15.645Z,7.93
2022-12-29T09:02:35.373Z,8.05
2022-12-29T09:04:57.414Z,7.55
2022-12-29T09:07:17.446Z,8.27
2022-12-29T09:09:37.168Z,7.65
2022-12-29T09:11:57.496Z,7.38
2022-12-29T09:14:17.205Z,8.63
2022-12-29T09:16:37.634Z,8.23
2022-12-29T09:18:57.430Z,8.38
2022-12-29T09:21:17.714Z,8.13
2022-12-29T09:23:38.376Z,8.23
2022-12-29T09:25:58.655Z,9.10
2022-12-29T09:28:18.989Z,8.23
2022-12-29T09:30:39.787Z,9.38
2022-12-29T09:32:59.702Z,7.60
2022-12-29T09:35:19.805Z,6.97
2022-12-29T09:37:40.122Z,6.13
2022-12-29T09:40:00.013Z,7.13
2022-12-29T09:42:23.591Z,6.53
2022-12-29T09:45:04.765Z,7.95
2022-12-29T09:47:26.616Z,8.30
2022-12-29T09:49:52.704Z,7.35
2022-12-29T09:52:21.181Z,7.63
2022-12-29T09:55:02.444Z,8.15
2022-12-29T09:57:38.894Z,7.70
2022-12-29T10:00:11.336Z,6.70
2022-12-29T10:03:03.637Z,6.78
2022-12-29T10:05:25.456Z,7.20
2022-12-29T10:08:06.606Z,6.97
2022-12-29T10:10:42.374Z,6.70
2022-12-29T10:13:28.814Z,8.00
2022-12-29T10:15:59.070Z,7.90
2022-12-29T10:18:37.791Z,7.00
2022-12-29T10:21:33.156Z,6.43
2022-12-29T10:23:53.819Z,7.47
2022-12-29T10:26:44.593Z,7.35
2022-12-29T10:29:06.678Z,7.43
2022-12-29T10:31:41.605Z,6.38
2022-12-29T10:34:10.978Z,6.82
2022-12-29T10:36:44.385Z,6.25
2022-12-29T10:39:14.961Z,7.57
2022-12-29T10:42:15.562Z,7.80
2022-12-29T10:44:36.052Z,6.38
2022-12-29T10:47:01.437Z,7.40
2022-12-29T10:49:22.565Z,6.50
2022-12-29T10:51:46.762Z,6.30
2022-12-29T10:54:16.385Z,6.75
2022-12-29T10:56:40.733Z,6.70
2022-12-29T10:59:21.800Z,7.50
2022-12-29T11:02:03.394Z,7.15
2022-12-29T11:04:48.226Z,7.63
2022-12-29T11:07:15.654Z,6.05
2022-12-29T11:09:42.354Z,8.05
2022-12-29T11:12:27.051Z,7.82
2022-12-29T11:14:47.393Z,7.90
2022-12-29T11:17:16.093Z,8.65
2022-12-29T11:19:40.775Z,7.65
2022-12-29T11:22:25.707Z,6.32
2022-12-29T11:24:47.816Z,7.43
2022-12-29T11:27:26.728Z,7.20
2022-12-29T11:29:46.878Z,6.70
2022-12-29T11:32:28.902Z,8.50
2022-12-29T11:34:50.014Z,9.55
2022-12-29T11:37:15.072Z,6.50
2022-12-29T11:39:40.655Z,7.47
2022-12-29T11:42:03.167Z,7.35
2022-12-29T11:44:23.604Z,6.72
2022-12-29T11:46:48.262Z,6.00
2022-12-29T11:49:19.169Z,6.25
2022-12-29T11:51:45.791Z,5.90
2022-12-29T11:54:06.137Z,7.85
2022-12-29T11:56:41.710Z,7.57
2022-12-29T11:59:39.227Z,7.47
2022-12-29T12:02:21.747Z,9.90
2022-12-29T12:04:42.426Z,7.05
2022-12-29T12:07:12.831Z,6.78
2022-12-29T12:09:39.372Z,7.13
2022-12-29T12:12:00.797Z,5.82
2022-12-29T12:14:24.214Z,6.20
2022-12-29T12:16:57.609Z,6.28
2022-12-29T12:19:27.395Z,5.10
2022-12-29T12:21:56.566Z,6.25
2022-12-29T12:24:22.653Z,5.72
2022-12-29T12:27:02.596Z,4.50
2022-12-29T12:29:34.354Z,5.38
2022-12-29T12:32:04.573Z,4.90
2022-12-29T12:34:37.408Z,6.43
2022-12-29T12:37:28.075Z,5.20
2022-12-29T12:40:12.752Z,5.63
2022-12-29T12:43:29.973Z,4.68
2022-12-29T12:46:16.278Z,6.43
2022-12-29T12:48:51.439Z,5.60
2022-12-29T12:51:29.104Z,5.57
2022-12-29T12:54:11.761Z,5.70
2022-12-29T12:56:50.348Z,4.97
2022-12-29T12:59:21.719Z,4.22
2022-12-29T13:02:03.317Z,3.35
2022-12-29T13:04:57.255Z,4.75
2022-12-29T13:09:41.269Z,6.28
2022-12-29T13:12:06.970Z,5.40
2022-12-29T13:14:41.484Z,5.60
2022-12-29T13:17:21.084Z,5.15
2022-12-29T13:19:53.048Z,4.90
2022-12-29T13:22:26.944Z,3.38
2022-12-29T13:25:21.071Z,4.63
2022-12-29T13:27:46.534Z,4.22
2022-12-29T13:30:14.823Z,4.97
2022-12-29T13:32:54.189Z,4.93
2022-12-29T13:35:35.726Z,5.93
2022-12-29T13:38:03.659Z,4.43
2022-12-29T13:40:34.365Z,5.97
2022-12-29T13:42:55.500Z,6.18
2022-12-29T13:45:24.507Z,6.60
2022-12-29T13:47:47.709Z,5.95
2022-12-29T13:50:25.209Z,5.53
2022-12-29T13:52:48.904Z,7.18
2022-12-29T13:55:29.130Z,7.10
2022-12-29T13:57:58.910Z,6.88
2022-12-29T14:00:21.475Z,4.97
2022-12-29T14:02:41.971Z,5.88
2022-12-29T14:05:25.446Z,5.57
2022-12-29T14:07:46.056Z,6.50
2022-12-29T14:10:06.943Z,4.72
2022-12-29T14:12:41.073Z,5.38
2022-12-29T14:15:12.545Z,5.00
2022-12-29T14:17:32.676Z,3.75
2022-12-29T14:19:54.612Z,5.30
2022-12-29T14:22:30.723Z,6.13
2022-12-29T14:24:53.375Z,6.43
2022-12-29T14:27:13.174Z,5.78
2022-12-29T14:29:39.399Z,5.00
2022-12-29T14:31:59.255Z,4.22
2022-12-29T14:34:22.520Z,3.20
2022-12-29T14:37:03.762Z,3.60
2022-12-29T14:39:44.646Z,3.92
2022-12-29T14:42:08.940Z,3.95
2022-12-29T14:44:28.829Z,4.10
2022-12-29T14:46:54.324Z,5.60
2022-12-29T14:49:20.351Z,2.90
2022-12-29T14:51:40.376Z,4.35
2022-12-29T14:54:00.557Z,6.80
2022-12-29T14:56:26.290Z,3.60
2022-12-29T14:58:45.975Z,3.50
2022-12-29T15:01:22.869Z,4.95
2022-12-29T15:03:52.647Z,5.22
2022-12-29T15:06:18.891Z,3.72
2022-12-29T15:08:47.246Z,3.58
2022-12-29T15:11:18.026Z,3.30
2022-12-29T15:13:41.970Z,5.13
2022-12-29T15:16:01.574Z,5.30
2022-12-29T15:18:30.427Z,3.45
2022-12-29T15:20:54.980Z,3.75
2022-12-29T15:23:15.281Z,2.03
2022-12-29T15:25:36.520Z,3.28
2022-12-29T15:28:07.237Z,3.63
2022-12-29T15:30:27.517Z,4.28
2022-12-29T15:32:49.617Z,2.72
2022-12-29T15:35:35.874Z,2.80
2022-12-29T15:37:56.598Z,2.92
2022-12-29T15:40:29.236Z,2.63
2022-12-29T15:42:56.219Z,2.67
2022-12-29T15:45:16.851Z,3.78
2022-12-29T15:47:37.294Z,3.97
2022-12-29T15:50:14.854Z,4.43
2022-12-29T15:52:35.957Z,3.72
2022-12-29T15:54:55.971Z,2.80
2022-12-29T15:57:28.117Z,3.80
2022-12-29T15:59:48.525Z,4.97
2022-12-29T16:02:12.697Z,3.17
2022-12-29T16:04:43.235Z,4.53
2022-12-29T16:07:29.608Z,3.50
2022-12-29T16:09:56.116Z,2.92
2022-12-29T16:12:25.350Z,2.85
2022-12-29T16:15:08.588Z,4.80
2022-12-29T16:17:33.821Z,3.30
2022-12-29T16:20:04.749Z,3.58
2022-12-29T16:22:32.938Z,4.20
2022-12-29T16:25:02.534Z,3.97
2022-12-29T16:27:36.561Z,3.15
2022-12-29T16:29:56.742Z,3.05
2022-12-29T16:32:26.366Z,3.42
2022-12-29T16:34:46.449Z,2.80
2022-12-29T16:37:30.243Z,3.15
2022-12-29T16:39:50.092Z,3.60
2022-12-29T16:42:37.812Z,3.97
2022-12-29T16:45:24.312Z,5.43
2022-12-29T16:47:45.936Z,3.65
2022-12-29T16:50:16.771Z,3.53
2022-12-29T16:52:36.913Z,3.22
2022-12-29T16:55:01.404Z,3.88
2022-12-29T16:57:25.164Z,4.15
2022-12-29T16:59:45.056Z,3.28
2022-12-29T17:02:16.784Z,3.30
2022-12-29T17:04:36.958Z,2.80
2022-12-29T17:06:56.638Z,3.03
2022-12-29T17:09:22.347Z,3.08
2022-12-29T17:12:00.467Z,4.75
2022-12-29T17:14:42.002Z,2.67
2022-12-29T17:17:04.446Z,3.00
2022-12-29T17:19:36.105Z,3.70
2022-12-29T17:21:56.300Z,2.13
2022-12-29T17:24:20.180Z,2.45
2022-12-29T17:26:40.485Z,3.65
2022-12-29T17:29:00.653Z,3.80
2022-12-29T17:31:21.067Z,3.45
2022-12-29T17:33:42.863Z,4.13
2022-12-29T17:36:03.362Z,4.95
2022-12-29T17:38:29.439Z,4.55
2022-12-29T17:40:50.260Z,5.03
2022-12-29T17:43:13.045Z,3.72
2022-12-29T17:45:32.993Z,4.15
2022-12-29T17:47:52.685Z,3.47
2022-12-29T17:50:15.746Z,2.65
2022-12-29T17:52:35.842Z,3.13
2022-12-29T17:54:55.862Z,4.47
2022-12-29T17:57:17.169Z,5.20
2022-12-29T17:59:36.968Z,2.92
2022-12-29T18:01:58.664Z,2.90
2022-12-29T18:04:19.804Z,2.55
2022-12-29T18:06:40.448Z,2.53
2022-12-29T18:09:00.516Z,2.47
2022-12-29T18:11:24.179Z,2.67
2022-12-29T18:13:46.828Z,3.33
2022-12-29T18:18:27.692Z,3.47
2022-12-29T18:20:51.608Z,2.65
2022-12-29T18:23:23.778Z,3.30
2022-12-29T18:26:17.711Z,3.38
2022-12-29T18:28:39.604Z,3.53
2022-12-29T18:31:01.245Z,3.38
2022-12-29T18:33:26.047Z,3.53
2022-12-29T18:35:51.734Z,3.00
2022-12-29T18:38:11.647Z,3.90
2022-12-29T18:40:33.722Z,5.85
2022-12-29T18:42:53.995Z,5.40
2022-12-29T18:45:19.253Z,3.50
2022-12-29T18:47:39.066Z,5.82
2022-12-29T18:49:58.876Z,6.72
2022-12-29T18:52:18.750Z,4.60
2022-12-29T18:54:38.749Z,5.65
2022-12-29T18:56:58.970Z,5.15
2022-12-29T18:59:19.103Z,4.90
2022-12-29T19:01:39.580Z,4.10
2022-12-29T19:03:59.253Z,5.15
2022-12-29T19:06:20.143Z,4.82
2022-12-29T19:08:40.083Z,5.88
2022-12-29T19:11:00.031Z,4.82
2022-12-29T19:13:28.767Z,3.55
2022-12-29T19:15:48.918Z,3.83
2022-12-29T19:20:52.677Z,3.90
2022-12-29T19:23:15.407Z,4.53
2022-12-29T19:25:38.005Z,3.63
2022-12-29T19:27:59.439Z,3.42
2022-12-29T19:30:20.406Z,3.80
2022-12-29T19:32:40.939Z,3.20
2022-12-29T19:35:00.907Z,3.95
2022-12-29T19:37:21.417Z,4.65
2022-12-29T19:39:41.173Z,4.43
2022-12-29T19:42:05.332Z,4.20
2022-12-29T19:44:25.490Z,5.97
2022-12-29T19:46:45.403Z,3.90
2022-12-29T19:49:05.499Z,4.55
2022-12-29T19:51:25.776Z,5.20
2022-12-29T19:53:46.316Z,5.45
2022-12-29T19:56:07.982Z,6.35
2022-12-29T19:58:27.777Z,6.15
2022-12-29T20:00:49.301Z,5.60
2022-12-29T20:03:10.148Z,5.00
2022-12-29T20:05:30.148Z,5.25
2022-12-29T20:07:49.898Z,5.03
2022-12-29T20:10:10.132Z,5.03
2022-12-29T20:12:29.766Z,5.82
2022-12-29T20:14:49.580Z,5.93
2022-12-29T20:17:12.305Z,5.35
2022-12-29T20:19:34.355Z,4.60
2022-12-29T20:21:54.444Z,6.07
2022-12-29T20:24:14.776Z,7.78
2022-12-29T20:26:34.957Z,6.22
2022-12-29T20:28:57.130Z,5.10
2022-12-29T20:31:27.358Z,6.87
2022-12-29T20:33:47.744Z,5.05
2022-12-29T20:36:10.785Z,7.07
2022-12-29T20:38:30.743Z,5.57
2022-12-29T20:40:50.985Z,5.70
2022-12-29T20:43:11.414Z,5.07
2022-12-29T20:45:31.471Z,5.85
2022-12-29T20:47:52.107Z,4.30
2022-12-29T20:50:12.090Z,4.20
2022-12-29T20:52:31.655Z,6.25
2022-12-29T20:54:51.264Z,4.53
2022-12-29T20:57:10.866Z,4.63
2022-12-29T20:59:30.930Z,4.25
2022-12-29T21:01:51.224Z,4.85
2022-12-29T21:04:11.043Z,4.60
2022-12-29T21:06:32.236Z,5.05
2022-12-29T21:08:53.900Z,6.45
2022-12-29T21:11:14.104Z,6.15
2022-12-29T21:13:34.197Z,5.00
2022-12-29T21:16:05.646Z,4.72
2022-12-29T21:18:25.965Z,4.53
2022-12-29T21:21:14.722Z,4.75
2022-12-29T21:23:39.180Z,4.38
2022-12-29T21:25:59.751Z,4.20
2022-12-29T21:28:21.900Z,4.47
2022-12-29T21:30:41.702Z,4.93
2022-12-29T21:33:01.439Z,4.32
2022-12-29T21:35:21.600Z,3.53
2022-12-29T21:37:41.479Z,4.93
2022-12-29T21:40:02.244Z,5.82
2022-12-29T21:42:22.666Z,6.90
2022-12-29T21:45:01.102Z,5.47
2022-12-29T21:47:21.022Z,4.57
2022-12-29T21:49:40.723Z,4.03
2022-12-29T21:52:00.475Z,6.03
2022-12-29T21:54:44.983Z,5.25
2022-12-29T21:57:06.035Z,4.68
2022-12-29T21:59:44.268Z,3.80
2022-12-29T22:02:33.452Z,5.55
2022-12-29T22:05:11.699Z,4.05
2022-12-29T22:07:49.923Z,4.32
2022-12-29T22:10:28.264Z,4.55
2022-12-29T22:12:59.306Z,4.57
2022-12-29T22:15:19.614Z,5.88
2022-12-29T22:17:48.298Z,4.80
2022-12-29T22:20:09.103Z,4.85
2022-12-29T22:22:29.079Z,4.13
2022-12-29T22:24:49.255Z,4.38
2022-12-29T22:27:15.912Z,4.75
2022-12-29T22:29:36.071Z,5.15
2022-12-29T22:31:56.288Z,5.38
2022-12-29T22:34:15.879Z,5.63
2022-12-29T22:36:36.175Z,6.05
2022-12-29T22:38:56.076Z,5.15
2022-12-29T22:41:16.403Z,5.00
2022-12-29T22:43:36.291Z,5.95
2022-12-29T22:46:02.674Z,5.57
2022-12-29T22:48:22.586Z,4.75
2022-12-29T22:50:42.429Z,5.07
2022-12-29T22:53:02.373Z,4.65
2022-12-29T22:55:22.071Z,6.05
2022-12-29T22:57:41.625Z,4.75
2022-12-29T23:00:01.631Z,4.35
2022-12-29T23:02:21.638Z,5.40
2022-12-29T23:07:21.615Z,6.30
2022-12-29T23:09:41.623Z,5.07
2022-12-29T23:12:01.756Z,5.57
2022-12-29T23:14:21.839Z,4.60
2022-12-29T23:16:44.693Z,4.95
2022-12-29T23:19:04.799Z,5.13
2022-12-29T23:21:24.408Z,5.35
2022-12-29T23:23:55.207Z,4.85
2022-12-29T23:26:16.278Z,5.25
2022-12-29T23:28:36.248Z,4.47
2022-12-29T23:30:56.092Z,4.88
2022-12-29T23:33:16.109Z,4.70
2022-12-29T23:35:35.842Z,5.72
2022-12-29T23:37:55.675Z,5.47
2022-12-29T23:40:15.904Z,4.78
2022-12-29T23:42:35.982Z,4.13
2022-12-29T23:44:56.162Z,4.47
2022-12-29T23:47:15.777Z,6.38
2022-12-29T23:49:35.625Z,5.95
2022-12-29T23:51:55.821Z,5.13
2022-12-29T23:54:15.381Z,6.05
2022-12-29T23:56:35.385Z,4.95
2022-12-29T23:58:55.463Z,6.10
